Time;durP1;ratioP1;P1;durP2;ratioP2;P2;SDS_P1;SDS_P2;PMS_P1;PMS_P2;Temp;Humidity;BMP_temperature;BMP_pressure;BME280_temperature;BME280_humidity;BME280_pressure;Samples;Min_cycle;Max_cycle;Signal;HPM_P1;HPM_P2
2022/10/03 08:24:26;;;;;;;17.23;5.57;;;17.10;99.90;;;;;;7752313;74;29371;-60
2022/10/03 08:34:34;;;;;;;13.17;5.77;;;17.10;99.90;;;;;;7599584;77;26306;-61
2022/10/03 08:45:13;;;;;;;15.47;5.03;;;17.10;99.90;;;;;;7601321;76;26380;-62
2022/10/03 08:55:41;;;;;;;21.07;5.90;;;17.10;99.90;;;;;;7586134;77;26372;-62
2022/10/03 09:06:07;;;;;;;16.57;4.40;;;17.20;99.90;;;;;;7636592;77;26748;-63
2022/10/03 09:16:27;;;;;;;8.47;4.33;;;17.30;99.90;;;;;;7570104;76;26767;-63
2022/10/03 09:27:01;;;;;;;12.90;5.10;;;17.40;99.90;;;;;;7655172;77;26310;-63
2022/10/03 09:37:21;;;;;;;11.83;4.00;;;17.50;99.90;;;;;;7669747;76;26757;-62
2022/10/03 09:47:33;;;;;;;11.70;4.17;;;17.60;99.90;;;;;;7658896;76;26741;-61
2022/10/03 09:57:58;;;;;;;13.20;4.73;;;17.50;99.90;;;;;;7681484;76;26301;-58
2022/10/03 10:08:22;;;;;;;12.23;5.07;;;17.40;99.90;;;;;;7657378;77;26734;-64
2022/10/03 10:18:43;;;;;;;15.10;6.63;;;17.30;99.90;;;;;;7630545;75;26323;-63
2022/10/03 10:29:06;;;;;;;22.23;6.50;;;17.30;99.90;;;;;;7591792;77;26738;-56
2022/10/03 10:39:31;;;;;;;18.87;5.23;;;17.20;99.90;;;;;;7581942;77;26321;-59
2022/10/03 10:49:52;;;;;;;24.03;4.33;;;17.60;99.90;;;;;;7582261;76;26368;-63
2022/10/03 11:00:20;;;;;;;30.93;6.27;;;17.70;99.90;;;;;;7590354;77;26342;-60
2022/10/03 11:10:38;;;;;;;27.63;6.67;;;17.80;99.90;;;;;;7616324;77;26782;-61
2022/10/03 11:20:56;;;;;;;22.97;5.77;;;17.80;99.90;;;;;;7581493;77;26745;-62
2022/10/03 11:31:04;;;;;;;42.03;6.73;;;17.80;99.90;;;;;;7598775;76;26325;-62
2022/10/03 11:41:24;;;;;;;33.77;6.87;;;17.90;99.90;;;;;;7619727;76;26236;-63
2022/10/03 11:52:03;;;;;;;19.17;6.57;;;17.80;99.90;;;;;;7606466;77;26224;-63
2022/10/03 12:02:11;;;;;;;17.07;6.00;;;17.80;99.90;;;;;;7637884;76;26339;-63
2022/10/03 12:12:26;;;;;;;21.87;6.70;;;18.00;99.90;;;;;;7599980;77;26790;-65
2022/10/03 12:22:32;;;;;;;20.83;6.07;;;18.00;99.90;;;;;;7611657;75;26329;-67
2022/10/03 12:32:38;;;;;;;39.13;7.53;;;18.10;99.90;;;;;;7648032;77;26361;-67
2022/10/03 12:42:50;;;;;;;18.93;6.30;;;18.10;99.90;;;;;;7641039;75;26313;-68
2022/10/03 13:13:54;;;;;;;29.37;6.77;;;18.10;99.90;;;;;;8042108;72;31714;-59
2022/10/03 13:24:06;;;;;;;27.07;5.77;;;18.30;99.90;;;;;;7873401;73;26262;-58
2022/10/03 13:34:20;;;;;;;27.53;5.53;;;18.40;99.90;;;;;;7895809;74;26275;-58
2022/10/03 13:44:27;;;;;;;30.03;6.87;;;18.30;99.90;;;;;;7871101;74;26327;-57
2022/10/03 13:54:48;;;;;;;26.70;6.40;;;18.40;99.90;;;;;;7903469;74;26284;-58
2022/10/03 14:05:19;;;;;;;14.67;5.90;;;18.30;99.90;;;;;;7916175;74;26355;-59
2022/10/03 14:15:27;;;;;;;14.43;4.63;;;18.30;99.90;;;;;;7917252;74;26334;-59
2022/10/03 14:25:42;;;;;;;28.37;7.50;;;18.40;99.90;;;;;;7881201;73;26282;-59
2022/10/03 14:36:12;;;;;;;26.33;5.83;;;18.40;99.90;;;;;;7923045;73;27278;-58
2022/10/03 14:46:15;;;;;;;12.50;4.10;;;18.40;99.90;;;;;;7899688;74;26737;-57
2022/10/03 14:56:19;;;;;;;39.97;6.37;;;18.40;99.90;;;;;;7911893;74;26233;-57
2022/10/03 15:06:34;;;;;;;17.70;4.50;;;18.40;99.90;;;;;;7884227;73;26719;-58
2022/10/03 15:16:45;;;;;;;10.93;3.53;;;18.40;99.90;;;;;;7911236;74;26227;-58
2022/10/03 15:26:50;;;;;;;36.83;7.93;;;18.40;99.90;;;;;;7906751;74;26260;-57
2022/10/03 15:36:56;;;;;;;18.67;4.53;;;18.40;99.90;;;;;;7925158;74;26965;-58
2022/10/03 15:47:03;;;;;;;39.93;6.97;;;18.40;99.90;;;;;;7918885;74;26217;-58
2022/10/03 15:57:07;;;;;;;29.13;4.37;;;18.40;99.90;;;;;;7906002;74;26974;-58
2022/10/03 16:07:21;;;;;;;18.20;4.17;;;18.40;99.90;;;;;;7909986;73;26248;-58
2022/10/03 16:17:38;;;;;;;11.97;3.97;;;18.40;99.90;;;;;;7912861;74;26244;-58
2022/10/03 16:27:44;;;;;;;7.20;3.63;;;18.30;99.90;;;;;;7938930;74;26231;-58
2022/10/03 16:37:49;;;;;;;8.20;3.83;;;18.30;99.90;;;;;;7914811;74;26229;-58
2022/10/03 16:58:28;;;;;;;9.73;4.10;;;18.20;99.90;;;;;;7912198;74;26745;-58
2022/10/03 17:08:35;;;;;;;6.90;3.27;;;18.10;99.90;;;;;;7880091;73;26274;-58
2022/10/03 17:18:44;;;;;;;8.87;3.10;;;18.10;99.90;;;;;;7867846;74;26717;-59
2022/10/03 17:28:49;;;;;;;9.13;3.20;;;18.00;99.90;;;;;;7918662;74;26211;-57
2022/10/03 17:39:07;;;;;;;9.87;3.27;;;18.00;99.90;;;;;;7917996;73;26313;-58
2022/10/03 17:49:30;;;;;;;6.43;2.70;;;17.90;99.90;;;;;;7920011;74;26294;-58
2022/10/03 17:59:38;;;;;;;10.73;3.47;;;17.90;99.90;;;;;;7922591;73;26995;-58
2022/10/03 18:09:54;;;;;;;10.67;3.27;;;17.80;99.90;;;;;;7900141;73;26231;-58
2022/10/03 18:20:21;;;;;;;6.77;3.03;;;17.80;99.90;;;;;;7905980;74;26222;-57
2022/10/03 18:30:45;;;;;;;11.77;3.37;;;17.80;99.90;;;;;;7841334;74;26299;-57
2022/10/03 18:40:54;;;;;;;15.30;5.87;;;17.70;99.90;;;;;;7890248;73;26760;-58
2022/10/03 18:50:59;;;;;;;16.20;5.67;;;17.70;99.90;;;;;;7878204;74;26378;-55
2022/10/03 19:01:27;;;;;;;18.53;5.10;;;17.70;99.90;;;;;;7860664;73;26809;-55
2022/10/03 19:12:02;;;;;;;10.27;3.70;;;17.60;99.90;;;;;;7911834;74;26405;-57
2022/10/03 19:22:07;;;;;;;6.00;2.93;;;17.60;99.90;;;;;;7937862;74;27028;-54
2022/10/03 19:32:18;;;;;;;14.60;4.13;;;17.60;99.90;;;;;;7856349;73;26236;-57
2022/10/03 19:42:45;;;;;;;10.10;3.57;;;17.50;99.90;;;;;;7887949;74;26273;-56
2022/10/03 19:52:49;;;;;;;7.70;3.87;;;17.50;99.90;;;;;;7888222;74;26227;-54
2022/10/03 20:02:55;;;;;;;10.27;4.17;;;17.40;99.90;;;;;;7881418;73;26323;-57
2022/10/03 20:13:02;;;;;;;5.87;3.40;;;17.40;99.90;;;;;;7889600;73;26297;-59
2022/10/03 20:23:07;;;;;;;10.13;3.57;;;17.30;99.90;;;;;;7896260;73;26700;-58
2022/10/03 20:33:18;;;;;;;13.17;3.73;;;17.30;99.90;;;;;;7895138;74;26327;-58
2022/10/03 20:43:38;;;;;;;10.23;4.37;;;17.30;99.90;;;;;;7903724;74;26228;-57
2022/10/03 20:53:42;;;;;;;9.73;4.27;;;17.20;99.90;;;;;;7913035;74;26350;-55
2022/10/03 21:04:02;;;;;;;15.40;4.80;;;17.20;99.90;;;;;;7897228;73;26238;-56
2022/10/03 21:14:19;;;;;;;9.07;4.40;;;17.10;99.90;;;;;;7872268;73;26257;-55
2022/10/03 21:24:31;;;;;;;8.80;4.40;;;17.10;99.90;;;;;;7857169;73;26291;-59
2022/10/03 21:34:39;;;;;;;6.03;3.37;;;17.10;99.90;;;;;;7915312;74;26243;-57
2022/10/03 21:44:45;;;;;;;9.37;3.80;;;17.00;99.90;;;;;;7939151;74;26255;-58
2022/10/03 21:54:56;;;;;;;9.90;3.70;;;16.80;99.90;;;;;;7875606;73;26372;-59
2022/10/03 22:05:02;;;;;;;7.83;3.53;;;16.90;99.90;;;;;;7848183;74;26279;-57
2022/10/03 22:15:13;;;;;;;7.73;4.00;;;16.90;99.90;;;;;;7904805;74;26778;-57
2022/10/03 22:25:53;;;;;;;6.60;3.77;;;16.80;99.90;;;;;;7927640;73;26315;-55
2022/10/03 22:36:01;;;;;;;13.13;4.33;;;16.80;99.90;;;;;;7877611;73;26336;-58
2022/10/03 22:46:05;;;;;;;8.93;3.70;;;16.70;99.90;;;;;;7906895;73;26252;-55
2022/10/03 22:56:35;;;;;;;6.17;3.30;;;16.70;99.90;;;;;;7875828;74;26746;-56
2022/10/03 23:06:49;;;;;;;11.73;3.67;;;16.70;99.90;;;;;;7911101;74;26311;-55
2022/10/03 23:17:04;;;;;;;5.73;3.50;;;16.60;99.90;;;;;;7861389;74;26238;-57
2022/10/03 23:27:15;;;;;;;8.50;2.80;;;16.60;99.90;;;;;;7877275;74;26247;-56
2022/10/03 23:37:39;;;;;;;7.80;3.33;;;16.60;99.90;;;;;;7867348;73;26718;-57
2022/10/03 23:47:56;;;;;;;9.57;3.83;;;16.50;99.90;;;;;;7910342;74;26814;-58
2022/10/03 23:57:59;;;;;;;6.03;3.13;;;16.40;99.90;;;;;;7925879;73;26773;-57
